Decoded Metar for KFKL (FRANKLIN in PA, USA) (IATA:FKL) | Meteo·Mobile Aviation Weather
aviador You're here:

KFKL Decoded Metar

FRANKLIN in PA, USA
Report Time2019-02-23 22:51:00
UTC Time2019-02-23 22:56:40
Flight Rules lifr LIFR
Wind130° at 10 Gusting to 16 kt
W.Decomp.*RWY 12: 9.4 kt HW 3.4 kt RCW
RWY 21: 3.4 kt HW 9.4 kt LCW
W.Rank130° ranks 19
Current wind is above 130° avg. (7.6)
Visibility2414 m
Phenomena:Light Rain
Mist
Clouds:Overcast 004 Hf
Ceiling400 ft
Temp01°C (ISA -11)
Dew Point01°C (100% RH)
AAT-4.4°C
QNH1017 hPa
Density Alt171 ft
Elevation1,539 ft
Report Wrong Elevation
Raw Report
KFKL 232251Z AUTO 13010G16KT 1 1/2SM -RA BR OVC004 01/01 A3002 RMK
AO2 UPE20RAB20 P0000 FZRANO=

Extra information for KFKL:More info

Metar Taf Metar & Taf Last 4 Metars F.Rules Stats Wind Profile Meteogram Temp Stats Airport Information Weather charts Add Link Nearby VenuesMetar ALERT Operation Metar Decoded Social comments

AIRNAV info for KFKL